sensor_id;sensor_type;location;lat;lon;timestamp;temperature;humidity
23751;DHT22;12055;52.098;13.176;2022-09-20T00:01:09;8.10;99.90
23751;DHT22;12055;52.098;13.176;2022-09-20T00:03:36;8.10;99.90
23751;DHT22;12055;52.098;13.176;2022-09-20T00:06:04;8.00;99.90
23751;DHT22;12055;52.098;13.176;2022-09-20T00:08:31;7.90;99.90
23751;DHT22;12055;52.098;13.176;2022-09-20T00:11:04;7.80;99.90
23751;DHT22;12055;52.098;13.176;2022-09-20T00:13:31;7.80;99.90
23751;DHT22;12055;52.098;13.176;2022-09-20T00:15:58;7.70;99.90
23751;DHT22;12055;52.098;13.176;2022-09-20T00:18:24;7.70;99.90
23751;DHT22;12055;52.098;13.176;2022-09-20T00:20:50;7.60;99.90
23751;DHT22;12055;52.098;13.176;2022-09-20T00:23:16;7.60;99.90
23751;DHT22;12055;52.098;13.176;2022-09-20T00:25:43;7.50;99.90
23751;DHT22;12055;52.098;13.176;2022-09-20T00:28:09;7.50;99.90
23751;DHT22;12055;52.098;13.176;2022-09-20T00:30:35;7.50;99.90
23751;DHT22;12055;52.098;13.176;2022-09-20T00:33:00;7.50;99.90
23751;DHT22;12055;52.098;13.176;2022-09-20T00:35:27;7.50;99.90
23751;DHT22;12055;52.098;13.176;2022-09-20T00:37:53;7.50;99.90
23751;DHT22;12055;52.098;13.176;2022-09-20T00:40:20;7.50;99.90
23751;DHT22;12055;52.098;13.176;2022-09-20T00:42:47;7.50;99.90
23751;DHT22;12055;52.098;13.176;2022-09-20T00:45:20;7.50;99.90
23751;DHT22;12055;52.098;13.176;2022-09-20T00:48:05;7.60;99.90
23751;DHT22;12055;52.098;13.176;2022-09-20T00:50:50;7.60;99.90
23751;DHT22;12055;52.098;13.176;2022-09-20T00:53:20;7.70;99.90
23751;DHT22;12055;52.098;13.176;2022-09-20T00:55:50;7.70;99.90
23751;DHT22;12055;52.098;13.176;2022-09-20T00:58:19;7.80;99.90
23751;DHT22;12055;52.098;13.176;2022-09-20T01:00:45;7.90;99.90
23751;DHT22;12055;52.098;13.176;2022-09-20T01:03:13;7.90;99.90
23751;DHT22;12055;52.098;13.176;2022-09-20T01:05:41;8.00;99.90
23751;DHT22;12055;52.098;13.176;2022-09-20T01:08:09;7.90;99.90
23751;DHT22;12055;52.098;13.176;2022-09-20T01:10:35;7.90;99.90
23751;DHT22;12055;52.098;13.176;2022-09-20T01:13:00;7.90;99.90
23751;DHT22;12055;52.098;13.176;2022-09-20T01:15:27;8.00;99.90
23751;DHT22;12055;52.098;13.176;2022-09-20T01:17:55;8.10;99.90
23751;DHT22;12055;52.098;13.176;2022-09-20T01:20:28;8.30;99.90
23751;DHT22;12055;52.098;13.176;2022-09-20T01:26:09;8.60;99.90
23751;DHT22;12055;52.098;13.176;2022-09-20T01:28:38;8.70;99.90
23751;DHT22;12055;52.098;13.176;2022-09-20T01:31:27;8.80;99.90
23751;DHT22;12055;52.098;13.176;2022-09-20T01:34:05;9.00;99.90
23751;DHT22;12055;52.098;13.176;2022-09-20T01:36:53;9.10;99.90
23751;DHT22;12055;52.098;13.176;2022-09-20T01:42:05;9.30;99.90
23751;DHT22;12055;52.098;13.176;2022-09-20T01:44:39;9.30;99.90
23751;DHT22;12055;52.098;13.176;2022-09-20T01:47:33;9.40;99.90
23751;DHT22;12055;52.098;13.176;2022-09-20T01:50:11;9.50;99.90
23751;DHT22;12055;52.098;13.176;2022-09-20T01:53:06;9.60;99.90
23751;DHT22;12055;52.098;13.176;2022-09-20T02:04:29;9.70;99.90
23751;DHT22;12055;52.098;13.176;2022-09-20T02:10:06;9.80;99.90
23751;DHT22;12055;52.098;13.176;2022-09-20T02:13:03;9.80;99.90
23751;DHT22;12055;52.098;13.176;2022-09-20T02:16:03;9.80;99.90
23751;DHT22;12055;52.098;13.176;2022-09-20T02:18:47;9.90;99.90
23751;DHT22;12055;52.098;13.176;2022-09-20T02:21:48;9.80;99.90
23751;DHT22;12055;52.098;13.176;2022-09-20T02:24:32;9.80;99.90
23751;DHT22;12055;52.098;13.176;2022-09-20T02:27:05;9.80;99.90
23751;DHT22;12055;52.098;13.176;2022-09-20T02:35:41;9.80;99.90
23751;DHT22;12055;52.098;13.176;2022-09-20T02:41:39;9.80;99.90
23751;DHT22;12055;52.098;13.176;2022-09-20T02:46:47;9.80;99.90
23751;DHT22;12055;52.098;13.176;2022-09-20T02:49:26;9.70;99.90
23751;DHT22;12055;52.098;13.176;2022-09-20T02:55:09;9.70;99.90
23751;DHT22;12055;52.098;13.176;2022-09-20T02:58:12;9.80;99.90
23751;DHT22;12055;52.098;13.176;2022-09-20T03:00:53;9.80;99.90
23751;DHT22;12055;52.098;13.176;2022-09-20T03:06:11;9.80;99.90
23751;DHT22;12055;52.098;13.176;2022-09-20T03:09:01;9.80;99.90
23751;DHT22;12055;52.098;13.176;2022-09-20T03:14:14;9.70;99.90
23751;DHT22;12055;52.098;13.176;2022-09-20T03:16:57;9.80;99.90
23751;DHT22;12055;52.098;13.176;2022-09-20T03:19:35;9.70;99.90
23751;DHT22;12055;52.098;13.176;2022-09-20T03:22:35;9.80;99.90
23751;DHT22;12055;52.098;13.176;2022-09-20T03:33:26;10.00;99.90
23751;DHT22;12055;52.098;13.176;2022-09-20T03:41:19;10.00;99.90
23751;DHT22;12055;52.098;13.176;2022-09-20T03:46:39;10.10;99.90
23751;DHT22;12055;52.098;13.176;2022-09-20T03:52:19;10.10;99.90
23751;DHT22;12055;52.098;13.176;2022-09-20T03:57:48;10.00;99.90
23751;DHT22;12055;52.098;13.176;2022-09-20T04:03:02;10.00;99.90
23751;DHT22;12055;52.098;13.176;2022-09-20T04:05:44;10.00;99.90
23751;DHT22;12055;52.098;13.176;2022-09-20T04:11:03;10.00;99.90
23751;DHT22;12055;52.098;13.176;2022-09-20T04:13:37;10.00;99.90
23751;DHT22;12055;52.098;13.176;2022-09-20T04:19:17;10.00;99.90
23751;DHT22;12055;52.098;13.176;2022-09-20T04:21:56;10.10;99.90
23751;DHT22;12055;52.098;13.176;2022-09-20T04:24:51;10.10;99.90
23751;DHT22;12055;52.098;13.176;2022-09-20T04:30:15;10.00;99.90
23751;DHT22;12055;52.098;13.176;2022-09-20T04:32:56;10.10;99.90
23751;DHT22;12055;52.098;13.176;2022-09-20T04:35:54;10.10;99.90
23751;DHT22;12055;52.098;13.176;2022-09-20T04:38:46;10.00;99.90
23751;DHT22;12055;52.098;13.176;2022-09-20T04:41:35;10.00;99.90
23751;DHT22;12055;52.098;13.176;2022-09-20T04:50:28;10.10;99.90
23751;DHT22;12055;52.098;13.176;2022-09-20T05:03:48;10.10;99.90
23751;DHT22;12055;52.098;13.176;2022-09-20T05:06:36;10.20;99.90
23751;DHT22;12055;52.098;13.176;2022-09-20T05:09:26;10.20;99.90
23751;DHT22;12055;52.098;13.176;2022-09-20T05:12:18;10.10;99.90
23751;DHT22;12055;52.098;13.176;2022-09-20T05:20:25;10.20;99.90
23751;DHT22;12055;52.098;13.176;2022-09-20T05:29:10;10.20;99.90
23751;DHT22;12055;52.098;13.176;2022-09-20T05:31:58;10.20;99.90
23751;DHT22;12055;52.098;13.176;2022-09-20T05:34:45;10.10;99.90
23751;DHT22;12055;52.098;13.176;2022-09-20T05:40:16;9.90;99.90
23751;DHT22;12055;52.098;13.176;2022-09-20T05:42:58;9.90;99.90
23751;DHT22;12055;52.098;13.176;2022-09-20T05:45:46;9.80;99.90
23751;DHT22;12055;52.098;13.176;2022-09-20T05:48:19;9.90;99.90
23751;DHT22;12055;52.098;13.176;2022-09-20T05:51:08;9.90;99.90
23751;DHT22;12055;52.098;13.176;2022-09-20T05:54:20;9.90;99.90
23751;DHT22;12055;52.098;13.176;2022-09-20T05:59:59;9.90;99.90
23751;DHT22;12055;52.098;13.176;2022-09-20T06:02:37;9.90;99.90
23751;DHT22;12055;52.098;13.176;2022-09-20T06:05:18;9.90;99.90
23751;DHT22;12055;52.098;13.176;2022-09-20T06:14:13;10.00;99.90
23751;DHT22;12055;52.098;13.176;2022-09-20T06:16:21;10.10;99.90
23751;DHT22;12055;52.098;13.176;2022-09-20T06:19:13;10.20;99.90
23751;DHT22;12055;52.098;13.176;2022-09-20T06:21:53;10.30;99.90
23751;DHT22;12055;52.098;13.176;2022-09-20T06:24:50;10.40;99.90
23751;DHT22;12055;52.098;13.176;2022-09-20T06:27:22;10.50;99.90
23751;DHT22;12055;52.098;13.176;2022-09-20T06:29:59;10.60;99.90
23751;DHT22;12055;52.098;13.176;2022-09-20T06:32:25;10.50;99.90
23751;DHT22;12055;52.098;13.176;2022-09-20T06:34:52;10.60;99.90
23751;DHT22;12055;52.098;13.176;2022-09-20T06:37:43;10.70;99.90
23751;DHT22;12055;52.098;13.176;2022-09-20T06:40:41;10.70;99.90
23751;DHT22;12055;52.098;13.176;2022-09-20T06:43:27;10.70;99.90
23751;DHT22;12055;52.098;13.176;2022-09-20T06:45:55;10.80;99.90
23751;DHT22;12055;52.098;13.176;2022-09-20T06:48:21;10.80;99.90
23751;DHT22;12055;52.098;13.176;2022-09-20T06:50:46;10.90;99.90
23751;DHT22;12055;52.098;13.176;2022-09-20T06:53:15;10.90;99.90
23751;DHT22;12055;52.098;13.176;2022-09-20T06:55:43;10.90;99.90
23751;DHT22;12055;52.098;13.176;2022-09-20T06:58:09;10.90;99.90
23751;DHT22;12055;52.098;13.176;2022-09-20T07:00:35;10.90;99.90
23751;DHT22;12055;52.098;13.176;2022-09-20T07:03:01;11.00;99.90
23751;DHT22;12055;52.098;13.176;2022-09-20T07:05:26;11.00;99.90
23751;DHT22;12055;52.098;13.176;2022-09-20T07:07:58;11.00;99.90
23751;DHT22;12055;52.098;13.176;2022-09-20T07:10:43;10.90;99.90
23751;DHT22;12055;52.098;13.176;2022-09-20T07:13:09;10.80;99.90
23751;DHT22;12055;52.098;13.176;2022-09-20T07:15:37;10.80;99.90
23751;DHT22;12055;52.098;13.176;2022-09-20T07:18:03;11.10;99.90
23751;DHT22;12055;52.098;13.176;2022-09-20T07:20:28;11.40;99.90
23751;DHT22;12055;52.098;13.176;2022-09-20T07:22:54;11.80;99.90
23751;DHT22;12055;52.098;13.176;2022-09-20T07:25:19;12.10;99.90
23751;DHT22;12055;52.098;13.176;2022-09-20T07:27:45;12.20;99.90
23751;DHT22;12055;52.098;13.176;2022-09-20T07:30:12;12.40;99.90
23751;DHT22;12055;52.098;13.176;2022-09-20T07:32:39;12.90;99.90
23751;DHT22;12055;52.098;13.176;2022-09-20T07:35:06;13.40;99.90
23751;DHT22;12055;52.098;13.176;2022-09-20T07:37:32;13.80;99.90
23751;DHT22;12055;52.098;13.176;2022-09-20T07:39:57;13.90;99.90
23751;DHT22;12055;52.098;13.176;2022-09-20T07:42:23;13.80;99.90
23751;DHT22;12055;52.098;13.176;2022-09-20T07:44:48;13.70;99.90
23751;DHT22;12055;52.098;13.176;2022-09-20T07:47:15;13.50;99.90
23751;DHT22;12055;52.098;13.176;2022-09-20T07:49:41;13.40;99.90
23751;DHT22;12055;52.098;13.176;2022-09-20T07:52:06;13.30;99.90
23751;DHT22;12055;52.098;13.176;2022-09-20T07:54:32;13.40;99.90
23751;DHT22;12055;52.098;13.176;2022-09-20T07:56:57;13.70;99.90
23751;DHT22;12055;52.098;13.176;2022-09-20T07:59:23;14.00;99.90
23751;DHT22;12055;52.098;13.176;2022-09-20T08:01:50;14.10;99.90
23751;DHT22;12055;52.098;13.176;2022-09-20T08:04:15;14.20;99.90
23751;DHT22;12055;52.098;13.176;2022-09-20T08:06:42;14.00;99.90
23751;DHT22;12055;52.098;13.176;2022-09-20T08:09:10;14.00;99.90
23751;DHT22;12055;52.098;13.176;2022-09-20T08:11:35;14.20;99.90
23751;DHT22;12055;52.098;13.176;2022-09-20T08:14:03;14.50;99.90
23751;DHT22;12055;52.098;13.176;2022-09-20T08:16:30;14.50;99.90
23751;DHT22;12055;52.098;13.176;2022-09-20T08:19:00;14.10;99.90
23751;DHT22;12055;52.098;13.176;2022-09-20T08:21:30;13.90;99.90
23751;DHT22;12055;52.098;13.176;2022-09-20T08:23:56;13.80;99.90
23751;DHT22;12055;52.098;13.176;2022-09-20T08:26:23;13.80;99.90
23751;DHT22;12055;52.098;13.176;2022-09-20T08:28:54;14.00;99.90
23751;DHT22;12055;52.098;13.176;2022-09-20T08:31:21;14.30;99.90
23751;DHT22;12055;52.098;13.176;2022-09-20T08:33:49;14.60;99.90
23751;DHT22;12055;52.098;13.176;2022-09-20T08:36:20;14.80;99.90
23751;DHT22;12055;52.098;13.176;2022-09-20T08:38:46;15.10;99.90
23751;DHT22;12055;52.098;13.176;2022-09-20T08:41:16;15.10;99.90
23751;DHT22;12055;52.098;13.176;2022-09-20T08:43:48;15.10;99.90
23751;DHT22;12055;52.098;13.176;2022-09-20T08:46:18;15.50;99.90
23751;DHT22;12055;52.098;13.176;2022-09-20T08:48:44;16.00;99.90
23751;DHT22;12055;52.098;13.176;2022-09-20T08:51:15;16.50;99.90
23751;DHT22;12055;52.098;13.176;2022-09-20T08:53:48;16.50;99.90
23751;DHT22;12055;52.098;13.176;2022-09-20T08:56:15;16.00;99.90
23751;DHT22;12055;52.098;13.176;2022-09-20T08:58:41;15.40;99.90
23751;DHT22;12055;52.098;13.176;2022-09-20T09:01:12;15.50;99.90
23751;DHT22;12055;52.098;13.176;2022-09-20T09:03:38;15.50;99.90
23751;DHT22;12055;52.098;13.176;2022-09-20T09:06:04;15.40;99.90
23751;DHT22;12055;52.098;13.176;2022-09-20T09:08:35;15.70;99.90
23751;DHT22;12055;52.098;13.176;2022-09-20T09:11:13;15.70;99.90
23751;DHT22;12055;52.098;13.176;2022-09-20T09:13:58;15.80;99.90
23751;DHT22;12055;52.098;13.176;2022-09-20T09:16:28;16.00;99.90
23751;DHT22;12055;52.098;13.176;2022-09-20T09:18:55;16.20;99.90
23751;DHT22;12055;52.098;13.176;2022-09-20T09:21:26;16.30;99.90
23751;DHT22;12055;52.098;13.176;2022-09-20T09:24:01;16.00;99.90
23751;DHT22;12055;52.098;13.176;2022-09-20T09:26:28;15.60;99.90
23751;DHT22;12055;52.098;13.176;2022-09-20T09:29:15;15.80;99.90
23751;DHT22;12055;52.098;13.176;2022-09-20T09:31:41;15.90;99.90
23751;DHT22;12055;52.098;13.176;2022-09-20T09:36:46;15.70;99.90
23751;DHT22;12055;52.098;13.176;2022-09-20T09:39:25;15.90;99.90
23751;DHT22;12055;52.098;13.176;2022-09-20T09:41:51;16.20;99.90
23751;DHT22;12055;52.098;13.176;2022-09-20T09:44:31;16.20;99.90
23751;DHT22;12055;52.098;13.176;2022-09-20T09:47:00;16.10;99.90
23751;DHT22;12055;52.098;13.176;2022-09-20T09:49:30;15.80;99.90
23751;DHT22;12055;52.098;13.176;2022-09-20T09:52:15;15.50;99.90
23751;DHT22;12055;52.098;13.176;2022-09-20T09:54:53;15.60;99.90
23751;DHT22;12055;52.098;13.176;2022-09-20T09:57:45;15.70;99.90
23751;DHT22;12055;52.098;13.176;2022-09-20T10:00:20;16.20;99.90
23751;DHT22;12055;52.098;13.176;2022-09-20T10:03:05;16.40;99.90
23751;DHT22;12055;52.098;13.176;2022-09-20T10:05:47;16.70;99.90
23751;DHT22;12055;52.098;13.176;2022-09-20T10:14:18;15.80;99.90
23751;DHT22;12055;52.098;13.176;2022-09-20T10:22:30;16.50;99.90
23751;DHT22;12055;52.098;13.176;2022-09-20T10:25:29;16.60;99.90
23751;DHT22;12055;52.098;13.176;2022-09-20T10:28:09;16.50;99.90
23751;DHT22;12055;52.098;13.176;2022-09-20T10:33:37;17.10;99.90
23751;DHT22;12055;52.098;13.176;2022-09-20T10:36:24;16.90;99.90
23751;DHT22;12055;52.098;13.176;2022-09-20T10:44:50;16.10;99.90
23751;DHT22;12055;52.098;13.176;2022-09-20T10:47:28;16.00;99.90
23751;DHT22;12055;52.098;13.176;2022-09-20T10:53:17;16.30;99.90
23751;DHT22;12055;52.098;13.176;2022-09-20T11:10:14;18.00;99.90
23751;DHT22;12055;52.098;13.176;2022-09-20T11:12:45;18.10;99.90
23751;DHT22;12055;52.098;13.176;2022-09-20T11:18:08;17.50;99.90
23751;DHT22;12055;52.098;13.176;2022-09-20T11:20:41;16.70;99.90
23751;DHT22;12055;52.098;13.176;2022-09-20T11:23:23;16.60;99.90
23751;DHT22;12055;52.098;13.176;2022-09-20T11:25:58;16.70;99.90
23751;DHT22;12055;52.098;13.176;2022-09-20T11:28:32;17.00;99.90
23751;DHT22;12055;52.098;13.176;2022-09-20T11:31:13;16.80;99.90
23751;DHT22;12055;52.098;13.176;2022-09-20T11:34:27;16.80;99.90
23751;DHT22;12055;52.098;13.176;2022-09-20T11:36:55;16.50;99.90
23751;DHT22;12055;52.098;13.176;2022-09-20T11:39:37;16.70;99.90
23751;DHT22;12055;52.098;13.176;2022-09-20T11:42:04;16.90;99.90
23751;DHT22;12055;52.098;13.176;2022-09-20T11:44:31;16.90;99.90
23751;DHT22;12055;52.098;13.176;2022-09-20T11:47:02;16.90;99.90
23751;DHT22;12055;52.098;13.176;2022-09-20T11:57:12;17.30;99.90
23751;DHT22;12055;52.098;13.176;2022-09-20T11:59:41;17.20;99.90
23751;DHT22;12055;52.098;13.176;2022-09-20T12:02:27;16.80;99.90
23751;DHT22;12055;52.098;13.176;2022-09-20T12:04:57;16.80;99.90
23751;DHT22;12055;52.098;13.176;2022-09-20T12:07:36;16.70;99.90
23751;DHT22;12055;52.098;13.176;2022-09-20T12:10:06;16.60;99.90
23751;DHT22;12055;52.098;13.176;2022-09-20T12:12:46;16.70;99.90
23751;DHT22;12055;52.098;13.176;2022-09-20T12:15:36;16.80;99.90
23751;DHT22;12055;52.098;13.176;2022-09-20T12:18:26;17.10;99.90
23751;DHT22;12055;52.098;13.176;2022-09-20T12:21:15;17.20;99.90
23751;DHT22;12055;52.098;13.176;2022-09-20T12:23:46;17.60;99.90
23751;DHT22;12055;52.098;13.176;2022-09-20T12:28:58;18.10;99.90
23751;DHT22;12055;52.098;13.176;2022-09-20T12:36:39;17.60;99.90
23751;DHT22;12055;52.098;13.176;2022-09-20T12:41:56;17.40;99.90
23751;DHT22;12055;52.098;13.176;2022-09-20T12:44:35;17.60;99.90
23751;DHT22;12055;52.098;13.176;2022-09-20T12:55:41;18.90;99.90
23751;DHT22;12055;52.098;13.176;2022-09-20T13:03:41;18.00;99.90
23751;DHT22;12055;52.098;13.176;2022-09-20T13:11:53;19.20;99.90
23751;DHT22;12055;52.098;13.176;2022-09-20T13:14:31;19.50;99.90
23751;DHT22;12055;52.098;13.176;2022-09-20T13:17:03;19.30;99.90
23751;DHT22;12055;52.098;13.176;2022-09-20T13:19:33;19.20;99.90
23751;DHT22;12055;52.098;13.176;2022-09-20T13:22:09;19.40;99.90
23751;DHT22;12055;52.098;13.176;2022-09-20T13:24:42;19.60;99.90
23751;DHT22;12055;52.098;13.176;2022-09-20T13:29:44;20.50;99.90
23751;DHT22;12055;52.098;13.176;2022-09-20T13:32:19;20.60;99.90
23751;DHT22;12055;52.098;13.176;2022-09-20T13:35:04;20.10;99.90
23751;DHT22;12055;52.098;13.176;2022-09-20T13:37:30;19.30;99.90
23751;DHT22;12055;52.098;13.176;2022-09-20T13:39:56;18.40;99.90
23751;DHT22;12055;52.098;13.176;2022-09-20T13:42:22;18.10;99.90
23751;DHT22;12055;52.098;13.176;2022-09-20T13:44:49;18.90;99.90
23751;DHT22;12055;52.098;13.176;2022-09-20T13:47:28;18.70;99.90
23751;DHT22;12055;52.098;13.176;2022-09-20T13:50:06;17.90;99.90
23751;DHT22;12055;52.098;13.176;2022-09-20T13:52:44;17.60;99.90
23751;DHT22;12055;52.098;13.176;2022-09-20T13:57:46;17.10;99.90
23751;DHT22;12055;52.098;13.176;2022-09-20T14:00:13;16.80;99.90
23751;DHT22;12055;52.098;13.176;2022-09-20T14:02:40;16.00;99.90
23751;DHT22;12055;52.098;13.176;2022-09-20T14:05:12;15.10;99.90
23751;DHT22;12055;52.098;13.176;2022-09-20T14:07:43;14.40;99.90
23751;DHT22;12055;52.098;13.176;2022-09-20T14:10:44;13.70;99.90
23751;DHT22;12055;52.098;13.176;2022-09-20T14:13:14;13.10;99.90
23751;DHT22;12055;52.098;13.176;2022-09-20T14:15:43;12.10;99.90
23751;DHT22;12055;52.098;13.176;2022-09-20T14:18:17;11.40;99.90
23751;DHT22;12055;52.098;13.176;2022-09-20T14:20:44;11.10;99.90
23751;DHT22;12055;52.098;13.176;2022-09-20T14:23:24;11.00;99.90
23751;DHT22;12055;52.098;13.176;2022-09-20T14:26:58;11.00;99.90
23751;DHT22;12055;52.098;13.176;2022-09-20T14:28:53;10.90;99.90
23751;DHT22;12055;52.098;13.176;2022-09-20T14:31:25;10.90;99.90
23751;DHT22;12055;52.098;13.176;2022-09-20T14:33:55;10.90;99.90
23751;DHT22;12055;52.098;13.176;2022-09-20T14:36:25;10.90;99.90
23751;DHT22;12055;52.098;13.176;2022-09-20T14:38:54;10.80;99.90
23751;DHT22;12055;52.098;13.176;2022-09-20T14:41:33;10.80;99.90
23751;DHT22;12055;52.098;13.176;2022-09-20T14:44:00;10.80;99.90
23751;DHT22;12055;52.098;13.176;2022-09-20T14:46:33;10.90;99.90
23751;DHT22;12055;52.098;13.176;2022-09-20T14:52:20;11.10;99.90
23751;DHT22;12055;52.098;13.176;2022-09-20T14:54:39;11.20;99.90
23751;DHT22;12055;52.098;13.176;2022-09-20T14:57:05;11.30;99.90
23751;DHT22;12055;52.098;13.176;2022-09-20T14:59:41;11.40;99.90
23751;DHT22;12055;52.098;13.176;2022-09-20T15:04:34;11.60;99.90
23751;DHT22;12055;52.098;13.176;2022-09-20T15:07:07;11.70;99.90
23751;DHT22;12055;52.098;13.176;2022-09-20T15:09:35;11.90;99.90
23751;DHT22;12055;52.098;13.176;2022-09-20T15:12:11;12.00;99.90
23751;DHT22;12055;52.098;13.176;2022-09-20T15:14:38;12.00;99.90
23751;DHT22;12055;52.098;13.176;2022-09-20T15:17:06;12.20;99.90
23751;DHT22;12055;52.098;13.176;2022-09-20T15:19:33;12.10;99.90
23751;DHT22;12055;52.098;13.176;2022-09-20T15:21:59;12.10;99.90
23751;DHT22;12055;52.098;13.176;2022-09-20T15:24:24;12.20;99.90
23751;DHT22;12055;52.098;13.176;2022-09-20T15:26:50;12.20;99.90
23751;DHT22;12055;52.098;13.176;2022-09-20T15:29:17;12.20;99.90
23751;DHT22;12055;52.098;13.176;2022-09-20T15:31:44;12.30;99.90
23751;DHT22;12055;52.098;13.176;2022-09-20T15:34:10;12.40;99.90
23751;DHT22;12055;52.098;13.176;2022-09-20T15:36:38;12.50;99.90
23751;DHT22;12055;52.098;13.176;2022-09-20T15:39:03;12.40;99.90
23751;DHT22;12055;52.098;13.176;2022-09-20T15:41:29;12.40;99.90
23751;DHT22;12055;52.098;13.176;2022-09-20T15:43:55;12.30;99.90
23751;DHT22;12055;52.098;13.176;2022-09-20T15:46:22;12.30;99.90
23751;DHT22;12055;52.098;13.176;2022-09-20T15:48:49;12.20;99.90
23751;DHT22;12055;52.098;13.176;2022-09-20T15:51:15;12.10;99.90
23751;DHT22;12055;52.098;13.176;2022-09-20T15:53:46;12.00;99.90
23751;DHT22;12055;52.098;13.176;2022-09-20T15:58:46;12.10;99.90
23751;DHT22;12055;52.098;13.176;2022-09-20T16:01:13;12.20;99.90
23751;DHT22;12055;52.098;13.176;2022-09-20T16:03:41;12.30;99.90
23751;DHT22;12055;52.098;13.176;2022-09-20T16:06:07;12.30;99.90
23751;DHT22;12055;52.098;13.176;2022-09-20T16:08:35;12.80;99.90
23751;DHT22;12055;52.098;13.176;2022-09-20T16:11:01;12.90;99.90
23751;DHT22;12055;52.098;13.176;2022-09-20T16:13:28;12.70;99.90
23751;DHT22;12055;52.098;13.176;2022-09-20T16:18:19;12.20;99.90
23751;DHT22;12055;52.098;13.176;2022-09-20T16:21:08;12.00;99.90
23751;DHT22;12055;52.098;13.176;2022-09-20T16:23:35;11.90;99.90
23751;DHT22;12055;52.098;13.176;2022-09-20T16:26:04;11.80;99.90
23751;DHT22;12055;52.098;13.176;2022-09-20T16:28:30;11.70;99.90
23751;DHT22;12055;52.098;13.176;2022-09-20T16:30:56;11.50;99.90
23751;DHT22;12055;52.098;13.176;2022-09-20T16:33:22;11.40;99.90
23751;DHT22;12055;52.098;13.176;2022-09-20T16:35:48;11.30;99.90
23751;DHT22;12055;52.098;13.176;2022-09-20T16:38:13;11.10;99.90
23751;DHT22;12055;52.098;13.176;2022-09-20T16:40:39;11.00;99.90
23751;DHT22;12055;52.098;13.176;2022-09-20T16:43:05;10.90;99.90
23751;DHT22;12055;52.098;13.176;2022-09-20T16:45:33;10.70;99.90
23751;DHT22;12055;52.098;13.176;2022-09-20T16:47:59;10.60;99.90
23751;DHT22;12055;52.098;13.176;2022-09-20T16:50:28;10.90;99.90
23751;DHT22;12055;52.098;13.176;2022-09-20T16:52:53;11.30;99.90
23751;DHT22;12055;52.098;13.176;2022-09-20T16:55:19;11.70;99.90
23751;DHT22;12055;52.098;13.176;2022-09-20T16:57:48;11.90;99.90
23751;DHT22;12055;52.098;13.176;2022-09-20T17:00:13;12.20;99.90
23751;DHT22;12055;52.098;13.176;2022-09-20T17:02:41;12.10;99.90
23751;DHT22;12055;52.098;13.176;2022-09-20T17:05:07;11.80;99.90
23751;DHT22;12055;52.098;13.176;2022-09-20T17:07:33;11.40;99.90
23751;DHT22;12055;52.098;13.176;2022-09-20T17:09:58;11.10;99.90
23751;DHT22;12055;52.098;13.176;2022-09-20T17:12:26;10.60;99.90
23751;DHT22;12055;52.098;13.176;2022-09-20T17:14:57;10.40;99.90
23751;DHT22;12055;52.098;13.176;2022-09-20T17:17:22;10.40;99.90
23751;DHT22;12055;52.098;13.176;2022-09-20T17:19:48;10.20;99.90
23751;DHT22;12055;52.098;13.176;2022-09-20T17:22:13;10.20;99.90
23751;DHT22;12055;52.098;13.176;2022-09-20T17:24:39;10.10;99.90
23751;DHT22;12055;52.098;13.176;2022-09-20T17:27:05;10.00;99.90
23751;DHT22;12055;52.098;13.176;2022-09-20T17:29:31;10.00;99.90
23751;DHT22;12055;52.098;13.176;2022-09-20T17:31:56;9.90;99.90
23751;DHT22;12055;52.098;13.176;2022-09-20T17:34:24;9.80;99.90
23751;DHT22;12055;52.098;13.176;2022-09-20T17:36:51;9.70;99.90
23751;DHT22;12055;52.098;13.176;2022-09-20T17:39:17;9.60;99.90
23751;DHT22;12055;52.098;13.176;2022-09-20T17:41:45;9.40;99.90
23751;DHT22;12055;52.098;13.176;2022-09-20T17:44:11;9.30;99.90
23751;DHT22;12055;52.098;13.176;2022-09-20T17:46:38;9.20;99.90
23751;DHT22;12055;52.098;13.176;2022-09-20T17:49:09;9.10;99.90
23751;DHT22;12055;52.098;13.176;2022-09-20T17:51:37;8.90;99.90
23751;DHT22;12055;52.098;13.176;2022-09-20T17:54:04;8.80;99.90
23751;DHT22;12055;52.098;13.176;2022-09-20T17:56:30;8.80;99.90
23751;DHT22;12055;52.098;13.176;2022-09-20T17:58:57;8.70;99.90
23751;DHT22;12055;52.098;13.176;2022-09-20T18:01:23;8.60;99.90
23751;DHT22;12055;52.098;13.176;2022-09-20T18:03:50;8.50;99.90
23751;DHT22;12055;52.098;13.176;2022-09-20T18:06:25;8.40;99.90
23751;DHT22;12055;52.098;13.176;2022-09-20T18:08:53;8.30;99.90
23751;DHT22;12055;52.098;13.176;2022-09-20T18:11:21;8.30;99.90
23751;DHT22;12055;52.098;13.176;2022-09-20T18:13:47;8.20;99.90
23751;DHT22;12055;52.098;13.176;2022-09-20T18:16:15;8.20;99.90
23751;DHT22;12055;52.098;13.176;2022-09-20T18:18:42;8.10;99.90
23751;DHT22;12055;52.098;13.176;2022-09-20T18:21:18;8.10;99.90
23751;DHT22;12055;52.098;13.176;2022-09-20T18:23:44;8.00;99.90
23751;DHT22;12055;52.098;13.176;2022-09-20T18:26:18;8.00;99.90
23751;DHT22;12055;52.098;13.176;2022-09-20T18:31:49;7.90;99.90
23751;DHT22;12055;52.098;13.176;2022-09-20T18:34:21;7.90;99.90
23751;DHT22;12055;52.098;13.176;2022-09-20T18:36:52;7.90;99.90
23751;DHT22;12055;52.098;13.176;2022-09-20T18:39:22;7.90;99.90
23751;DHT22;12055;52.098;13.176;2022-09-20T18:41:47;7.90;99.90
23751;DHT22;12055;52.098;13.176;2022-09-20T18:44:15;7.80;99.90
23751;DHT22;12055;52.098;13.176;2022-09-20T18:46:40;7.80;99.90
23751;DHT22;12055;52.098;13.176;2022-09-20T18:49:07;7.70;99.90
23751;DHT22;12055;52.098;13.176;2022-09-20T18:51:33;7.70;99.90
23751;DHT22;12055;52.098;13.176;2022-09-20T18:53:59;7.70;99.90
23751;DHT22;12055;52.098;13.176;2022-09-20T18:56:29;7.60;99.90
23751;DHT22;12055;52.098;13.176;2022-09-20T18:58:59;7.60;99.90
23751;DHT22;12055;52.098;13.176;2022-09-20T19:01:51;7.60;99.90
23751;DHT22;12055;52.098;13.176;2022-09-20T19:13:05;7.70;99.90
23751;DHT22;12055;52.098;13.176;2022-09-20T19:15:42;7.70;99.90
23751;DHT22;12055;52.098;13.176;2022-09-20T19:18:25;7.70;99.90
23751;DHT22;12055;52.098;13.176;2022-09-20T19:26:32;7.60;99.90
23751;DHT22;12055;52.098;13.176;2022-09-20T19:29:03;7.60;99.90
23751;DHT22;12055;52.098;13.176;2022-09-20T19:31:35;7.60;99.90
23751;DHT22;12055;52.098;13.176;2022-09-20T19:34:09;7.50;99.90
23751;DHT22;12055;52.098;13.176;2022-09-20T19:37:01;7.40;99.90
23751;DHT22;12055;52.098;13.176;2022-09-20T19:42:23;7.40;99.90
23751;DHT22;12055;52.098;13.176;2022-09-20T19:47:59;7.40;99.90